Time;durP1;ratioP1;P1;durP2;ratioP2;P2;SDS_P1;SDS_P2;PMS_P1;PMS_P2;Temp;Humidity;BMP_temperature;BMP_pressure;BME280_temperature;BME280_humidity;BME280_pressure;Samples;Min_cycle;Max_cycle;Signal;HPM_P1;HPM_P2
2022/08/01 00:01:36;;;;;;;26.50;17.10;;;;;;;18.64;99.67;101585.25;5022666;28;20030;-57
2022/08/01 00:04:02;;;;;;;33.75;17.83;;;;;;;18.66;99.70;101588.56;5022614;28;20029;-58
2022/08/01 00:06:28;;;;;;;34.40;18.15;;;;;;;18.64;99.79;101582.56;5020385;28;20025;-57
2022/08/01 00:08:53;;;;;;;28.17;16.58;;;;;;;18.70;99.98;101587.13;5025680;28;20061;-57
2022/08/01 00:11:18;;;;;;;31.20;17.35;;;;;;;18.71;99.83;101599.53;5018758;28;20036;-57
2022/08/01 00:13:44;;;;;;;33.05;18.58;;;;;;;18.71;99.76;101598.72;5027059;28;20032;-57
2022/08/01 00:16:09;;;;;;;31.40;18.70;;;;;;;18.71;99.69;101599.53;5025464;28;20487;-56
2022/08/01 00:18:35;;;;;;;29.33;18.13;;;;;;;18.71;100.00;101604.91;5025767;28;20025;-57
2022/08/01 00:21:01;;;;;;;30.27;18.90;;;;;;;18.69;99.47;101596.22;5024457;28;20053;-55
2022/08/01 00:23:27;;;;;;;39.75;20.88;;;;;;;18.73;99.55;101605.53;5023285;28;20032;-56
2022/08/01 00:25:52;;;;;;;37.65;20.42;;;;;;;18.78;99.74;101602.22;5024167;28;20029;-57
2022/08/01 00:28:17;;;;;;;39.60;19.98;;;;;;;18.79;99.73;101602.06;5019009;28;20021;-57
2022/08/01 00:30:43;;;;;;;35.95;19.00;;;;;;;18.81;99.24;101605.38;5023565;28;20216;-56
2022/08/01 00:33:08;;;;;;;27.45;16.17;;;;;;;18.80;99.53;101603.72;5024014;28;20044;-55
2022/08/01 00:35:33;;;;;;;18.38;12.60;;;;;;;18.75;98.59;101611.53;5025235;28;20045;-57
2022/08/01 00:37:59;;;;;;;20.83;12.20;;;;;;;18.79;98.04;101612.81;5020392;28;20038;-57
2022/08/01 00:40:24;;;;;;;17.98;11.35;;;;;;;18.79;97.55;101615.50;5023669;28;20123;-57
2022/08/01 00:42:49;;;;;;;17.33;10.65;;;;;;;18.79;96.83;101617.34;5023706;28;20025;-57
2022/08/01 00:45:15;;;;;;;15.05;10.05;;;;;;;18.76;96.31;101610.50;5026529;28;20053;-56
2022/08/01 00:47:40;;;;;;;14.43;9.50;;;;;;;18.78;95.79;101613.00;5024039;28;20080;-56
2022/08/01 00:50:06;;;;;;;13.93;9.52;;;;;;;18.77;95.47;101614.84;5023702;28;20044;-56
2022/08/01 00:52:33;;;;;;;13.63;9.90;;;;;;;18.80;95.45;101617.16;5026352;28;20025;-57
2022/08/01 00:54:58;;;;;;;15.20;10.07;;;;;;;18.80;95.28;101619.03;5035299;28;20441;-57
2022/08/01 00:57:23;;;;;;;14.10;9.50;;;;;;;18.80;94.67;101619.84;5028067;28;20025;-53
2022/08/01 00:59:49;;;;;;;18.15;10.27;;;;;;;18.82;94.50;101622.34;5032516;28;20104;-56
2022/08/01 01:02:14;;;;;;;15.50;9.95;;;;;;;18.82;94.49;101616.97;5024319;28;20092;-56
2022/08/01 01:04:39;;;;;;;16.60;10.57;;;;;;;18.75;94.20;101613.41;5028899;28;20402;-56
2022/08/01 01:07:18;;;;;;;15.38;9.93;;;;;;;18.74;94.28;101603.69;5022950;28;20037;-56
2022/08/01 01:10:00;;;;;;;15.27;10.05;;;;;;;18.82;94.41;101623.16;5020530;28;20036;-56
2022/08/01 01:12:34;;;;;;;17.65;10.88;;;;;;;18.80;94.21;101619.84;5030645;28;20036;-57
2022/08/01 01:15:22;;;;;;;15.90;10.95;;;;;;;18.83;94.31;101615.91;5022601;28;20491;-57
2022/08/01 01:17:50;;;;;;;18.58;11.38;;;;;;;18.77;94.38;101614.84;5031368;28;20104;-56
2022/08/01 01:20:16;;;;;;;17.75;11.43;;;;;;;18.77;94.01;101622.09;5023304;28;20068;-54
2022/08/01 01:22:53;;;;;;;17.85;10.63;;;;;;;18.75;93.83;101608.84;5024187;28;20032;-56
2022/08/01 01:25:37;;;;;;;18.38;11.63;;;;;;;18.72;93.86;101617.34;5034912;28;20033;-56
2022/08/01 01:28:16;;;;;;;18.88;10.63;;;;;;;18.70;93.69;101613.19;5023143;28;20030;-56
2022/08/01 01:30:46;;;;;;;18.65;11.02;;;;;;;18.68;93.81;101615.25;5027189;28;20121;-55
2022/08/01 01:33:13;;;;;;;17.15;11.13;;;;;;;18.68;93.70;101616.09;5019048;28;20030;-55
2022/08/01 01:35:44;;;;;;;17.08;10.07;;;;;;;18.68;93.61;101613.41;5024943;28;20065;-56
2022/08/01 01:38:26;;;;;;;15.90;10.05;;;;;;;18.70;93.51;101613.19;5020911;28;20453;-56
2022/08/01 01:40:53;;;;;;;14.00;9.93;;;;;;;18.67;93.79;101616.31;5022077;28;20079;-56
2022/08/01 01:43:20;;;;;;;15.32;9.98;;;;;;;18.65;93.58;101611.13;5021361;28;20021;-57
2022/08/01 01:45:47;;;;;;;15.77;9.88;;;;;;;18.63;93.72;101609.69;5029701;28;20041;-57
2022/08/01 01:48:16;;;;;;;14.38;9.82;;;;;;;18.62;93.64;101608.00;5025964;28;20497;-55
2022/08/01 01:50:44;;;;;;;15.55;9.80;;;;;;;18.61;93.85;101607.16;5033429;28;20046;-55
2022/08/01 01:53:13;;;;;;;16.50;9.77;;;;;;;18.60;93.65;101608.19;5030366;28;20087;-56
2022/08/01 01:55:40;;;;;;;14.85;9.48;;;;;;;18.61;93.56;101607.16;5017042;28;20549;-56
2022/08/01 01:58:08;;;;;;;18.35;9.98;;;;;;;18.59;93.69;101603.84;5031612;28;20048;-57
2022/08/01 02:00:34;;;;;;;15.77;9.88;;;;;;;18.60;93.61;101610.06;5025371;28;20021;-57
2022/08/01 02:03:03;;;;;;;14.52;9.77;;;;;;;18.59;93.54;101606.53;5034391;28;20029;-55
2022/08/01 02:05:29;;;;;;;15.52;9.77;;;;;;;18.58;93.87;101605.72;5031220;28;20536;-56
2022/08/01 02:07:55;;;;;;;16.52;9.48;;;;;;;18.56;93.64;101602.41;5029964;28;20021;-55
2022/08/01 02:10:22;;;;;;;14.10;9.77;;;;;;;18.53;93.44;101597.44;5034833;28;20032;-55
2022/08/01 02:12:50;;;;;;;16.83;9.90;;;;;;;18.56;93.36;101613.16;5016861;28;20171;-57
2022/08/01 02:15:17;;;;;;;14.30;9.85;;;;;;;18.55;93.24;101610.69;5026209;28;20018;-57
2022/08/01 02:17:46;;;;;;;15.38;9.60;;;;;;;18.53;93.46;101615.44;5031949;28;20108;-55
2022/08/01 02:20:13;;;;;;;17.58;10.00;;;;;;;18.51;93.08;101606.75;5023541;28;20029;-58
2022/08/01 02:22:46;;;;;;;16.45;9.57;;;;;;;18.49;93.04;101617.69;5019513;28;20037;-55
2022/08/01 02:25:23;;;;;;;15.48;9.93;;;;;;;18.45;93.05;101610.22;5023768;28;20036;-57
2022/08/01 02:28:07;;;;;;;13.35;9.32;;;;;;;18.46;92.98;101611.88;5026193;28;20030;-57
2022/08/01 02:30:35;;;;;;;14.15;9.48;;;;;;;18.43;92.84;101612.28;5027991;28;20052;-55
2022/08/01 02:33:41;;;;;;;16.33;9.32;;;;;;;18.42;92.92;101610.63;5027569;28;20035;-56
2022/08/01 02:36:07;;;;;;;15.85;10.02;;;;;;;18.37;92.68;101607.72;5018724;28;20033;-57
2022/08/01 02:38:37;;;;;;;13.57;9.73;;;;;;;18.29;92.97;101616.81;5024533;28;20486;-56
2022/08/01 02:41:09;;;;;;;16.65;9.60;;;;;;;18.21;92.84;101606.22;5021781;28;20063;-57
2022/08/01 02:43:38;;;;;;;20.20;9.82;;;;;;;18.19;92.78;101619.03;5026645;28;20036;-57
2022/08/01 02:46:05;;;;;;;;;;;;;;;18.29;93.11;101621.38;5023797;28;20147;-56
2022/08/01 02:48:35;;;;;;;19.85;10.70;;;;;;;18.15;93.00;101620.47;5025482;28;19921;-57
2022/08/01 02:51:02;;;;;;;17.27;10.60;;;;;;;18.10;93.16;101615.72;5026324;28;20516;-57
2022/08/01 02:53:32;;;;;;;17.88;10.27;;;;;;;18.12;93.49;101616.34;5021768;28;20109;-56
2022/08/01 02:55:59;;;;;;;18.33;10.52;;;;;;;18.08;93.47;101615.09;5032415;28;20018;-55
2022/08/01 02:58:25;;;;;;;16.70;10.20;;;;;;;18.01;93.48;101614.22;5019879;28;20029;-58
2022/08/01 03:00:51;;;;;;;16.83;9.85;;;;;;;17.97;93.35;101617.53;5017810;28;21047;-57
2022/08/01 03:03:17;;;;;;;18.63;10.25;;;;;;;17.92;93.46;101612.72;5021077;28;20017;-57
2022/08/01 03:05:44;;;;;;;14.30;9.30;;;;;;;17.83;93.58;101617.44;5015083;28;20037;-57
2022/08/01 03:08:11;;;;;;;18.27;10.23;;;;;;;17.78;93.67;101614.53;5025088;28;20049;-57
2022/08/01 03:10:39;;;;;;;19.92;10.07;;;;;;;17.74;93.70;101612.44;5019839;28;20039;-55
2022/08/01 03:13:07;;;;;;;17.07;10.30;;;;;;;17.73;93.73;101610.78;5019742;28;20026;-57
2022/08/01 03:15:36;;;;;;;14.93;10.10;;;;;;;17.67;93.86;101611.56;5021995;28;20294;-56
2022/08/01 03:18:03;;;;;;;19.40;10.55;;;;;;;17.66;94.00;101616.09;5024681;28;20025;-55
2022/08/01 03:20:32;;;;;;;19.20;10.38;;;;;;;17.64;94.13;101620.84;5022010;28;20032;-57
2022/08/01 03:22:59;;;;;;;18.45;10.50;;;;;;;17.65;94.14;101614.44;5022769;28;20394;-55
2022/08/01 03:25:26;;;;;;;19.67;10.30;;;;;;;17.61;94.34;101630.09;5023182;28;20127;-55
2022/08/01 03:27:58;;;;;;;17.20;10.27;;;;;;;17.54;94.49;101631.94;5017032;28;20026;-56
2022/08/01 03:30:24;;;;;;;21.65;10.65;;;;;;;17.47;94.45;101636.44;5019794;28;20624;-57
2022/08/01 03:32:50;;;;;;;16.90;9.98;;;;;;;17.43;94.31;101631.66;5021715;28;20499;-57
2022/08/01 03:35:15;;;;;;;21.30;9.93;;;;;;;17.35;94.54;101629.94;5018829;28;20156;-57
2022/08/01 03:37:45;;;;;;;14.45;9.52;;;;;;;17.32;94.48;101631.16;5023485;28;20059;-56
2022/08/01 03:40:17;;;;;;;17.90;10.32;;;;;;;17.30;94.63;101638.56;5023082;28;20033;-56
2022/08/01 03:42:51;;;;;;;19.50;10.88;;;;;;;17.30;94.90;101635.06;5019124;28;20034;-54
2022/08/01 03:45:27;;;;;;;19.05;11.32;;;;;;;17.30;95.26;101641.25;5024395;28;20033;-56
2022/08/01 03:47:59;;;;;;;19.73;11.43;;;;;;;17.32;95.72;101641.06;5021569;28;20059;-57
2022/08/01 03:50:24;;;;;;;19.77;11.18;;;;;;;17.35;95.56;101635.31;5023332;28;20056;-56
2022/08/01 03:52:51;;;;;;;19.52;11.02;;;;;;;17.39;96.01;101636.59;5021055;28;20068;-57
2022/08/01 03:55:17;;;;;;;22.30;12.20;;;;;;;17.41;96.19;101629.16;5017025;28;20028;-57
2022/08/01 03:57:45;;;;;;;19.48;11.48;;;;;;;17.41;96.42;101647.13;5023849;28;20057;-56
2022/08/01 04:00:10;;;;;;;19.95;11.90;;;;;;;17.43;96.33;101640.53;5020333;28;20030;-57
2022/08/01 04:02:36;;;;;;;22.25;11.93;;;;;;;17.40;96.27;101638.25;5022222;28;20376;-57
2022/08/01 04:05:02;;;;;;;18.83;10.93;;;;;;;17.43;96.35;101637.03;5022672;28;20060;-57
2022/08/01 04:07:30;;;;;;;20.77;11.75;;;;;;;17.42;96.17;101633.50;5016015;28;20029;-57
2022/08/01 04:09:56;;;;;;;19.58;10.50;;;;;;;17.44;96.00;101641.38;5017894;28;20032;-56
2022/08/01 04:12:22;;;;;;;19.80;11.40;;;;;;;17.39;95.83;101636.59;5019367;28;20372;-57
2022/08/01 04:14:48;;;;;;;20.10;10.80;;;;;;;17.39;95.98;101636.59;5022318;28;20483;-57
2022/08/01 04:17:14;;;;;;;20.50;11.32;;;;;;;17.38;96.12;101637.63;5028703;28;20455;-57
2022/08/01 04:19:40;;;;;;;20.02;11.10;;;;;;;17.39;96.25;101638.44;5023381;28;20453;-56
2022/08/01 04:22:06;;;;;;;19.17;10.55;;;;;;;17.41;96.32;101633.72;5023131;28;20577;-55
2022/08/01 04:24:33;;;;;;;19.95;10.90;;;;;;;17.42;96.66;101635.38;5017784;28;20510;-56
2022/08/01 04:27:01;;;;;;;18.48;10.75;;;;;;;17.40;96.76;101643.63;5022164;28;20028;-57
2022/08/01 04:29:29;;;;;;;18.85;10.45;;;;;;;17.39;96.19;101646.50;5022783;28;20030;-57
2022/08/01 04:31:56;;;;;;;19.42;11.13;;;;;;;17.40;96.50;101646.31;5026389;28;20030;-56
2022/08/01 04:34:25;;;;;;;19.17;10.80;;;;;;;17.40;96.36;101650.84;5030151;28;20025;-57
2022/08/01 04:36:54;;;;;;;19.83;11.55;;;;;;;17.35;96.35;101646.06;5017865;28;20058;-57
2022/08/01 04:39:21;;;;;;;20.02;10.90;;;;;;;17.30;96.34;101645.78;5032544;28;20091;-56
2022/08/01 04:41:47;;;;;;;17.98;10.00;;;;;;;17.25;96.01;101643.69;5019250;28;20029;-57
2022/08/01 04:44:13;;;;;;;16.17;9.85;;;;;;;17.26;96.20;101645.34;5034170;28;20029;-56
2022/08/01 04:46:40;;;;;;;16.25;10.25;;;;;;;17.23;96.22;101647.59;5026233;28;20061;-57
2022/08/01 04:49:11;;;;;;;17.80;10.32;;;;;;;17.21;96.22;101647.81;5035567;28;20413;-58
2022/08/01 04:51:48;;;;;;;16.55;9.65;;;;;;;17.25;95.93;101648.25;5026276;28;20026;-54
2022/08/01 04:54:14;;;;;;;17.05;9.65;;;;;;;17.31;95.91;101644.78;5031815;28;20029;-56
2022/08/01 04:56:39;;;;;;;19.30;10.35;;;;;;;17.31;95.86;101653.66;5025572;28;20044;-57
2022/08/01 05:01:50;;;;;;;19.83;10.60;;;;;;;17.26;95.99;101660.63;5026948;28;20551;-56
2022/08/01 05:04:15;;;;;;;20.17;10.60;;;;;;;17.25;96.16;101656.28;5034842;28;20021;-55
2022/08/01 05:06:40;;;;;;;17.95;10.80;;;;;;;17.28;96.12;101662.09;5032310;28;20390;-56
2022/08/01 05:09:06;;;;;;;22.27;11.00;;;;;;;17.27;96.29;101657.75;5024622;28;20044;-56
2022/08/01 05:11:31;;;;;;;20.88;10.88;;;;;;;17.26;96.73;101655.28;5020808;28;20522;-56
2022/08/01 05:13:56;;;;;;;19.98;10.80;;;;;;;17.40;96.78;101666.94;5028434;28;20029;-55
2022/08/01 05:16:21;;;;;;;20.98;10.40;;;;;;;17.44;96.86;101665.53;5035277;28;20040;-56
2022/08/01 05:18:47;;;;;;;17.88;10.40;;;;;;;17.50;96.78;101664.75;5029066;28;20467;-57
2022/08/01 05:21:12;;;;;;;18.42;10.50;;;;;;;17.53;96.57;101659.81;5034492;28;20017;-57
2022/08/01 05:23:37;;;;;;;18.77;10.45;;;;;;;17.58;96.87;101667.28;5027782;28;20321;-57
2022/08/01 05:26:04;;;;;;;16.48;9.45;;;;;;;17.62;96.97;101668.53;5026187;28;20403;-56
2022/08/01 05:28:29;;;;;;;18.95;10.18;;;;;;;17.64;97.01;101675.41;5028240;28;20031;-56
2022/08/01 05:30:55;;;;;;;16.75;9.63;;;;;;;17.73;97.08;101675.28;5032788;28;20025;-56
2022/08/01 05:33:21;;;;;;;18.67;9.68;;;;;;;17.77;97.35;101679.22;5025937;28;20241;-56
2022/08/01 05:35:46;;;;;;;18.75;9.90;;;;;;;17.82;96.94;101684.81;5023377;28;20107;-56
2022/08/01 05:38:11;;;;;;;19.55;9.02;;;;;;;17.86;97.27;101691.47;5031541;28;20057;-54
2022/08/01 05:40:37;;;;;;;15.23;8.90;;;;;;;17.87;97.60;101677.00;5019304;28;21508;-56
2022/08/01 05:43:02;;;;;;;12.88;7.68;;;;;;;17.97;97.64;101690.09;5025706;28;20036;-56
2022/08/01 05:45:27;;;;;;;16.15;8.15;;;;;;;18.02;97.41;101683.09;5030584;28;20379;-57
2022/08/01 05:47:53;;;;;;;12.00;6.97;;;;;;;18.08;97.38;101684.97;5033888;28;20033;-56
2022/08/01 05:50:18;;;;;;;12.57;7.18;;;;;;;18.10;97.18;101676.72;5028895;28;20033;-56
2022/08/01 05:52:43;;;;;;;12.70;7.10;;;;;;;18.18;96.80;101680.03;5030281;28;20402;-57
2022/08/01 05:55:09;;;;;;;9.65;6.70;;;;;;;18.26;96.71;101687.13;5027701;28;20026;-55
2022/08/01 05:57:34;;;;;;;8.90;6.47;;;;;;;18.29;96.15;101691.28;5037718;28;20049;-57
2022/08/01 05:59:59;;;;;;;11.10;6.53;;;;;;;18.35;95.81;101688.59;5028133;28;20037;-57
2022/08/01 06:02:25;;;;;;;9.48;6.25;;;;;;;18.41;95.71;101682.41;5033650;28;20410;-57
2022/08/01 06:04:50;;;;;;;8.55;5.80;;;;;;;18.44;95.19;101694.63;5034835;28;20033;-56
2022/08/01 06:07:15;;;;;;;9.35;5.20;;;;;;;18.45;94.66;101689.06;5032042;28;20025;-56
2022/08/01 06:09:40;;;;;;;6.57;4.80;;;;;;;18.48;94.61;101698.56;5029810;28;20053;-56
2022/08/01 06:12:06;;;;;;;6.75;4.55;;;;;;;18.51;93.91;101692.81;5031969;28;20029;-58
2022/08/01 06:14:31;;;;;;;7.00;3.70;;;;;;;18.52;93.78;101691.78;5030557;28;20591;-55
2022/08/01 06:16:57;;;;;;;5.45;3.55;;;;;;;18.54;93.31;101693.25;5027103;28;20029;-56
2022/08/01 06:19:22;;;;;;;4.43;3.47;;;;;;;18.62;92.85;101686.88;5030215;28;20590;-57
2022/08/01 06:21:47;;;;;;;3.83;3.45;;;;;;;18.66;92.49;101703.44;5025789;28;20666;-58
2022/08/01 06:24:12;;;;;;;4.50;3.80;;;;;;;18.69;92.45;101694.94;5029668;28;20021;-57
2022/08/01 06:26:38;;;;;;;7.32;4.35;;;;;;;18.67;92.03;101692.47;5032503;28;20502;-56
2022/08/01 06:29:03;;;;;;;5.82;3.97;;;;;;;18.73;91.74;101690.81;5028175;28;20025;-56
2022/08/01 06:31:28;;;;;;;6.07;4.28;;;;;;;18.83;91.90;101696.66;5026663;28;20056;-57
2022/08/01 06:33:55;;;;;;;5.32;4.65;;;;;;;18.87;91.74;101696.03;5030226;28;20225;-56
2022/08/01 06:36:20;;;;;;;7.45;4.82;;;;;;;18.86;91.27;101702.47;5030756;28;20032;-56
2022/08/01 06:38:46;;;;;;;6.80;4.80;;;;;;;18.87;91.12;101701.44;5032018;28;20035;-55
2022/08/01 06:41:11;;;;;;;5.60;4.47;;;;;;;18.92;90.99;101700.81;5032293;28;20060;-57
2022/08/01 06:43:36;;;;;;;9.95;5.20;;;;;;;19.00;90.90;101700.59;5031429;28;20041;-54
2022/08/01 06:46:01;;;;;;;7.85;5.38;;;;;;;19.01;90.76;101704.94;5030508;28;20025;-55
2022/08/01 06:48:27;;;;;;;7.43;5.28;;;;;;;19.04;90.60;101706.41;5027247;28;20092;-57
2022/08/01 06:51:07;;;;;;;7.68;5.07;;;;;;;19.07;90.60;101706.81;5036586;28;20036;-57
2022/08/01 06:53:33;;;;;;;7.82;5.85;;;;;;;19.12;90.38;101711.63;5025062;28;20013;-57
2022/08/01 06:55:58;;;;;;;7.22;5.78;;;;;;;19.11;89.78;101718.88;5020258;28;20033;-55
2022/08/01 06:58:23;;;;;;;6.68;5.57;;;;;;;19.11;89.53;101716.16;5032565;28;20483;-56
2022/08/01 07:00:49;;;;;;;6.40;5.38;;;;;;;19.11;89.70;101705.41;5030695;28;20025;-56
2022/08/01 07:03:14;;;;;;;5.80;5.22;;;;;;;19.18;89.41;101711.63;5032384;28;20490;-53
2022/08/01 07:05:39;;;;;;;6.97;5.70;;;;;;;19.18;88.96;101708.09;5024550;28;20120;-54
2022/08/01 07:08:05;;;;;;;9.27;5.68;;;;;;;19.22;89.01;101719.28;5028391;28;20490;-56
2022/08/01 07:10:30;;;;;;;6.53;5.43;;;;;;;19.30;89.02;101721.75;5025566;28;20117;-57
2022/08/01 07:12:55;;;;;;;7.18;5.40;;;;;;;19.33;88.91;101711.41;5021954;28;20434;-57
2022/08/01 07:15:26;;;;;;;5.90;5.40;;;;;;;19.38;88.65;101725.09;5040218;28;20032;-56
2022/08/01 07:17:51;;;;;;;6.07;5.47;;;;;;;19.37;88.41;101717.19;5019791;28;20505;-57
2022/08/01 07:20:16;;;;;;;5.70;5.10;;;;;;;19.40;88.06;101731.09;5035056;28;20032;-57
2022/08/01 07:22:41;;;;;;;6.38;5.40;;;;;;;19.42;88.07;101723.66;5020340;28;20430;-57
2022/08/01 07:25:07;;;;;;;6.32;5.05;;;;;;;19.37;87.62;101712.66;5031707;28;20041;-57
2022/08/01 07:27:34;;;;;;;5.25;4.75;;;;;;;19.48;87.17;101722.81;5022104;28;20052;-57
2022/08/01 07:29:59;;;;;;;5.80;5.18;;;;;;;19.57;87.40;101723.44;5022149;28;20029;-57
2022/08/01 07:32:24;;;;;;;6.20;5.60;;;;;;;19.65;87.22;101725.09;5029313;28;20029;-57
2022/08/01 07:34:49;;;;;;;6.50;5.90;;;;;;;19.76;87.03;101727.16;5032473;28;20129;-57
2022/08/01 07:37:15;;;;;;;6.45;5.30;;;;;;;19.82;86.59;101730.88;5033074;28;20674;-57
2022/08/01 07:39:40;;;;;;;5.65;5.05;;;;;;;19.85;86.35;101728.59;5032460;28;20564;-55
2022/08/01 07:42:05;;;;;;;6.18;5.05;;;;;;;19.95;86.01;101731.72;5026505;28;20029;-57
2022/08/01 07:44:31;;;;;;;5.72;5.13;;;;;;;19.98;85.84;101733.97;5036828;28;20271;-59
2022/08/01 07:46:56;;;;;;;6.88;5.20;;;;;;;20.11;85.55;101736.63;5024911;28;20517;-57
2022/08/01 07:49:21;;;;;;;5.95;5.35;;;;;;;20.18;84.88;101742.00;5026904;28;20025;-58
2022/08/01 07:51:47;;;;;;;6.85;5.18;;;;;;;20.17;84.65;101747.59;5023219;28;20028;-57
2022/08/01 07:54:12;;;;;;;7.63;5.32;;;;;;;20.23;84.27;101741.34;5034092;28;20032;-57
2022/08/01 07:56:39;;;;;;;6.90;5.40;;;;;;;20.20;84.09;101733.69;5032365;28;20045;-57
2022/08/01 07:59:04;;;;;;;6.63;5.43;;;;;;;20.31;83.98;101749.25;5014007;28;20022;-57
2022/08/01 08:01:29;;;;;;;7.70;5.10;;;;;;;20.41;84.28;101752.34;5030302;28;20256;-58
2022/08/01 08:03:55;;;;;;;5.05;4.55;;;;;;;20.36;83.80;101755.66;5026984;28;20052;-56
2022/08/01 08:06:20;;;;;;;6.32;4.93;;;;;;;20.40;83.68;101750.69;5033261;28;20033;-58
2022/08/01 08:08:45;;;;;;;5.35;4.60;;;;;;;20.43;83.80;101747.56;5031554;28;20049;-58
2022/08/01 08:11:10;;;;;;;5.90;4.70;;;;;;;20.44;83.28;101745.69;5032905;28;20441;-57
2022/08/01 08:13:36;;;;;;;4.85;4.35;;;;;;;20.48;82.99;101747.75;5026273;28;20036;-57
2022/08/01 08:16:01;;;;;;;6.65;4.55;;;;;;;20.52;82.81;101742.75;5031475;28;20029;-57
2022/08/01 08:18:26;;;;;;;6.35;4.60;;;;;;;20.61;82.70;101738.78;5032616;28;20021;-56
2022/08/01 08:20:52;;;;;;;6.82;4.50;;;;;;;20.70;82.27;101735.59;5035824;28;20035;-57
2022/08/01 08:26:01;;;;;;;6.32;3.92;;;;;;;20.87;82.00;101735.13;5029565;28;20521;-56
2022/08/01 08:28:27;;;;;;;4.32;3.67;;;;;;;20.90;81.28;101743.59;5024366;28;20014;-57
2022/08/01 08:30:54;;;;;;;3.63;3.30;;;;;;;20.88;80.73;101747.56;5029724;28;20025;-56
2022/08/01 08:33:20;;;;;;;4.07;3.30;;;;;;;20.87;80.65;101743.22;5028101;28;20372;-55
2022/08/01 08:35:45;;;;;;;3.30;3.00;;;;;;;20.93;80.42;101740.47;5027697;28;20037;-60
2022/08/01 08:38:10;;;;;;;4.53;3.03;;;;;;;20.96;80.12;101741.91;5034899;28;20036;-57
2022/08/01 08:40:36;;;;;;;3.28;2.92;;;;;;;21.01;79.78;101751.00;5031390;28;20029;-56
2022/08/01 08:43:04;;;;;;;2.63;2.30;;;;;;;21.03;79.31;101750.78;5025741;28;20018;-57
2022/08/01 08:45:30;;;;;;;2.65;2.45;;;;;;;21.00;79.08;101745.81;5028831;28;20104;-55
2022/08/01 08:47:56;;;;;;;2.97;2.05;;;;;;;21.09;79.09;101747.22;5019625;28;20104;-57
2022/08/01 08:50:22;;;;;;;2.40;2.20;;;;;;;21.14;78.80;101758.22;5025613;28;20032;-57
2022/08/01 08:52:48;;;;;;;2.83;2.05;;;;;;;21.26;78.05;101758.34;5028271;28;20098;-57
2022/08/01 08:55:15;;;;;;;2.60;2.20;;;;;;;21.32;77.24;101760.19;5028560;28;20040;-57
2022/08/01 08:57:44;;;;;;;2.25;2.13;;;;;;;21.37;76.95;101760.34;5031356;28;20033;-55
2022/08/01 09:00:11;;;;;;;3.97;3.17;;;;;;;21.32;77.09;101763.72;5028427;28;20052;-57
2022/08/01 09:02:41;;;;;;;3.40;3.10;;;;;;;21.32;77.53;101766.41;5020874;28;20025;-55
2022/08/01 09:05:07;;;;;;;3.85;3.45;;;;;;;21.40;77.76;101775.31;5026695;28;20022;-57
2022/08/01 09:07:32;;;;;;;3.10;2.80;;;;;;;21.40;77.46;101762.63;5028652;28;20398;-58
2022/08/01 09:09:57;;;;;;;2.60;2.40;;;;;;;21.47;77.00;101760.69;5026863;28;20017;-57
2022/08/01 09:12:22;;;;;;;3.63;2.50;;;;;;;21.54;76.78;101766.88;5020603;28;20030;-56
2022/08/01 09:14:49;;;;;;;3.30;2.60;;;;;;;21.61;76.29;101766.81;5028199;28;20033;-57
2022/08/01 09:17:16;;;;;;;2.58;2.38;;;;;;;21.70;76.31;101768.22;5025152;28;20426;-57
2022/08/01 09:19:47;;;;;;;3.00;2.47;;;;;;;21.94;75.87;101775.44;5038798;28;20103;-55
2022/08/01 09:22:22;;;;;;;2.90;2.60;;;;;;;22.01;75.25;101788.94;5033532;28;20032;-58
2022/08/01 09:25:08;;;;;;;2.60;2.40;;;;;;;22.12;74.39;101781.97;5030559;28;20025;-55
2022/08/01 09:27:34;;;;;;;3.58;2.40;;;;;;;22.14;74.19;101779.88;5029132;28;20037;-57
2022/08/01 09:30:09;;;;;;;4.07;2.33;;;;;;;22.35;73.98;101784.84;5020390;28;20483;-56
2022/08/01 09:32:34;;;;;;;3.17;2.10;;;;;;;22.50;73.08;101785.28;5027962;28;20108;-56
2022/08/01 09:35:24;;;;;;;2.28;2.08;;;;;;;22.72;71.85;101782.09;5032070;28;20108;-56
2022/08/01 09:37:49;;;;;;;3.13;2.17;;;;;;;22.83;71.65;101779.47;5030399;28;20030;-57
2022/08/01 09:40:14;;;;;;;3.15;2.50;;;;;;;22.97;71.21;101782.84;5031663;28;20034;-56
2022/08/01 09:42:39;;;;;;;2.67;1.70;;;;;;;23.01;70.73;101784.03;5034425;28;20036;-55
2022/08/01 09:45:05;;;;;;;1.77;1.67;;;;;;;23.06;70.53;101788.75;5028435;28;20565;-56
2022/08/01 09:47:40;;;;;;;2.72;2.00;;;;;;;22.91;69.28;101794.59;5031975;28;20526;-57
2022/08/01 09:50:06;;;;;;;1.88;1.67;;;;;;;22.78;69.74;101789.31;5028215;28;20497;-57
2022/08/01 09:52:32;;;;;;;1.67;1.58;;;;;;;22.68;69.38;101799.88;5034109;28;20203;-56
2022/08/01 09:55:00;;;;;;;3.33;1.98;;;;;;;22.63;69.54;101800.56;5031911;28;20104;-57
2022/08/01 09:57:27;;;;;;;3.10;2.17;;;;;;;22.54;69.57;101804.59;5028015;28;20045;-57
2022/08/01 09:59:55;;;;;;;2.17;1.80;;;;;;;22.52;69.29;101810.25;5024397;28;20091;-56
2022/08/01 10:02:31;;;;;;;1.52;1.42;;;;;;;22.52;69.23;101804.81;5032548;28;20398;-57
2022/08/01 10:04:57;;;;;;;1.85;1.30;;;;;;;22.48;68.86;101798.22;5024720;28;20056;-57
2022/08/01 10:07:22;;;;;;;1.50;1.40;;;;;;;22.49;69.30;101808.00;5027422;28;20053;-55
2022/08/01 10:09:48;;;;;;;2.22;1.38;;;;;;;22.56;69.31;101807.94;5029811;28;20028;-56
2022/08/01 10:12:16;;;;;;;1.50;1.40;;;;;;;22.51;68.81;101808.59;5020547;28;20390;-56
2022/08/01 10:14:44;;;;;;;2.40;1.20;;;;;;;22.59;69.36;101802.06;5014631;28;20030;-55
2022/08/01 10:17:13;;;;;;;2.88;1.27;;;;;;;22.51;68.81;101808.59;5024432;28;20033;-56
2022/08/01 10:19:41;;;;;;;1.20;0.88;;;;;;;22.49;68.75;101809.88;5030535;28;20037;-57
2022/08/01 10:22:16;;;;;;;2.38;1.00;;;;;;;22.47;68.65;101818.22;5018597;28;20084;-57
2022/08/01 10:24:43;;;;;;;2.42;1.45;;;;;;;22.39;68.76;101805.00;5032772;28;20440;-56
2022/08/01 10:27:10;;;;;;;1.40;1.23;;;;;;;22.36;69.39;101813.56;5020583;28;20029;-58
2022/08/01 10:29:38;;;;;;;2.38;1.50;;;;;;;22.22;69.56;101825.56;5027227;28;20620;-57
2022/08/01 10:32:05;;;;;;;2.13;1.50;;;;;;;22.07;69.61;101819.69;5030776;28;20105;-56
2022/08/01 10:34:33;;;;;;;2.70;1.58;;;;;;;21.91;69.58;101829.16;5034904;28;20024;-57
2022/08/01 10:36:58;;;;;;;1.70;1.60;;;;;;;21.80;69.92;101825.31;5031896;28;20483;-56
2022/08/01 10:39:26;;;;;;;1.83;1.70;;;;;;;21.71;70.10;101829.34;5030267;28;20040;-57
2022/08/01 10:41:51;;;;;;;1.67;1.30;;;;;;;21.61;69.92;101834.38;5023187;28;20087;-56
2022/08/01 10:44:17;;;;;;;3.95;1.20;;;;;;;21.54;70.42;101829.03;5033958;28;20021;-55
2022/08/01 10:46:48;;;;;;;4.13;1.02;;;;;;;21.46;70.30;101844.69;5025044;28;20402;-57
2022/08/01 10:49:16;;;;;;;2.40;0.95;;;;;;;21.35;70.17;101838.09;5025559;28;20113;-57
2022/08/01 10:51:42;;;;;;;4.90;1.20;;;;;;;21.34;70.23;101836.44;5029287;28;20020;-57
2022/08/01 10:54:10;;;;;;;2.33;1.20;;;;;;;21.24;70.32;101841.50;5028079;28;20022;-55
2022/08/01 10:56:48;;;;;;;2.83;1.27;;;;;;;21.32;70.76;101839.38;5033732;28;20052;-56
2022/08/01 10:59:27;;;;;;;3.10;1.38;;;;;;;21.45;70.85;101837.63;5026138;28;20021;-57
2022/08/01 11:02:00;;;;;;;3.70;1.40;;;;;;;21.45;70.69;101837.63;5030591;28;20029;-53
2022/08/01 11:04:55;;;;;;;2.97;1.40;;;;;;;21.64;70.74;101842.06;5026229;28;20013;-57
2022/08/01 11:07:38;;;;;;;2.22;1.17;;;;;;;21.82;70.75;101842.13;5016577;28;20087;-57
2022/08/01 11:10:10;;;;;;;1.63;1.05;;;;;;;21.96;70.21;101840.13;5026155;28;20131;-56
2022/08/01 11:12:40;;;;;;;2.38;0.95;;;;;;;22.08;69.35;101851.94;5019280;28;20021;-54
2022/08/01 11:15:07;;;;;;;3.35;1.40;;;;;;;22.21;68.92;101851.78;5034674;28;20498;-56
2022/08/01 11:17:50;;;;;;;1.92;1.10;;;;;;;22.36;68.51;101847.91;5026432;28;20644;-58
2022/08/01 11:20:25;;;;;;;5.40;1.50;;;;;;;22.44;68.43;101855.75;5023443;28;20048;-56
2022/08/01 11:23:00;;;;;;;3.80;1.48;;;;;;;22.55;67.81;101857.69;5028098;28;20024;-57
2022/08/01 11:25:26;;;;;;;3.33;1.40;;;;;;;22.59;67.60;101852.69;5028326;28;20045;-56
2022/08/01 11:28:13;;;;;;;2.20;1.33;;;;;;;22.69;66.89;101853.78;5029114;28;20025;-57